createdAt,value
2019-03-06T00:00:41.681Z,97903.59
2019-03-06T00:03:46.370Z,97902.27
2019-03-06T00:06:51.100Z,97913.33
2019-03-06T00:09:55.832Z,97911.17
2019-03-06T00:13:00.977Z,97907.52
2019-03-06T00:16:05.705Z,97901.27
2019-03-06T00:19:10.433Z,97897.65
2019-03-06T00:22:15.164Z,97895.51
2019-03-06T00:25:19.899Z,97900.90
2019-03-06T00:28:24.633Z,97898.69
2019-03-06T00:31:29.365Z,97898.39
2019-03-06T00:34:33.800Z,97883.61
2019-03-06T00:37:38.507Z,97885.05
2019-03-06T00:40:45.907Z,97881.23
2019-03-06T00:43:50.644Z,97892.73
2019-03-06T00:46:55.371Z,97893.46
2019-03-06T00:50:00.183Z,97899.52
2019-03-06T00:53:05.034Z,97900.97
2019-03-06T00:56:09.764Z,97896.91
2019-03-06T00:59:14.573Z,97887.08
2019-03-06T01:02:19.012Z,97878.32
2019-03-06T01:05:24.488Z,97879.77
2019-03-06T01:08:29.402Z,97884.20
2019-03-06T01:11:34.235Z,97876.43
2019-03-06T01:14:38.898Z,97868.93
2019-03-06T01:17:43.563Z,97860.81
2019-03-06T01:20:48.227Z,97845.09
2019-03-06T01:23:52.711Z,97851.23
2019-03-06T01:26:57.389Z,97859.73
2019-03-06T01:30:01.820Z,97856.67
2019-03-06T01:33:09.302Z,97857.33
2019-03-06T01:36:15.612Z,97843.64
2019-03-06T01:39:25.022Z,97837.95
2019-03-06T01:42:32.187Z,97832.18
2019-03-06T01:45:36.926Z,97838.73
2019-03-06T01:48:41.655Z,97839.41
2019-03-06T01:51:46.392Z,97831.75
2019-03-06T01:54:51.122Z,97820.87
2019-03-06T01:57:55.848Z,97823.86
2019-03-06T02:01:00.582Z,97821.77
2019-03-06T02:04:05.018Z,97819.37
2019-03-06T02:07:09.890Z,97805.80
2019-03-06T02:10:16.084Z,97791.17
2019-03-06T02:13:24.684Z,97789.32
2019-03-06T02:16:29.350Z,97797.74
2019-03-06T02:19:33.853Z,97790.42
2019-03-06T02:22:38.297Z,97778.57
2019-03-06T02:25:43.134Z,97776.14
2019-03-06T02:28:47.570Z,97779.86
2019-03-06T02:31:52.292Z,97782.14
2019-03-06T02:34:57.014Z,97783.09
2019-03-06T02:38:01.457Z,97772.42
2019-03-06T02:41:06.177Z,97780.48
2019-03-06T02:44:11.000Z,97764.58
2019-03-06T02:47:15.848Z,97732.11
2019-03-06T02:50:20.919Z,97729.87
2019-03-06T02:53:25.731Z,97742.91
2019-03-06T02:56:30.548Z,97748.78
2019-03-06T02:59:45.622Z,97734.84
2019-03-06T03:02:51.705Z,97742.37
2019-03-06T03:05:58.592Z,97746.41
2019-03-06T03:09:03.708Z,97739.83
2019-03-06T03:12:08.545Z,97749.50
2019-03-06T03:15:13.116Z,97747.91
2019-03-06T03:18:17.906Z,97743.11
2019-03-06T03:21:22.343Z,97738.17
2019-03-06T03:24:27.049Z,97729.47
2019-03-06T03:27:31.783Z,97714.11
2019-03-06T03:30:36.591Z,97717.83
2019-03-06T03:33:41.347Z,97711.30
2019-03-06T03:36:45.770Z,97715.77
2019-03-06T03:39:50.209Z,97714.73
2019-03-06T03:42:54.818Z,97717.16
2019-03-06T03:45:59.554Z,97716.67
2019-03-06T03:49:04.278Z,97716.42
2019-03-06T03:52:09.319Z,97717.92
2019-03-06T03:55:19.923Z,97722.20
2019-03-06T03:58:24.370Z,97724.44
2019-03-06T04:01:28.805Z,97715.27
2019-03-06T04:04:33.570Z,97718.55
2019-03-06T04:07:38.306Z,97717.22
2019-03-06T04:10:42.750Z,97717.27
2019-03-06T04:13:47.180Z,97716.66
2019-03-06T04:16:51.613Z,97716.97
2019-03-06T04:19:56.096Z,97715.77
2019-03-06T04:23:00.921Z,97717.67
2019-03-06T04:26:05.369Z,97720.75
2019-03-06T04:29:09.800Z,97721.00
2019-03-06T04:32:14.510Z,97708.11
2019-03-06T04:35:18.944Z,97715.42
2019-03-06T04:38:23.372Z,97727.17
2019-03-06T04:41:27.814Z,97724.89
2019-03-06T04:44:32.606Z,97724.93
2019-03-06T04:47:37.747Z,97724.02
2019-03-06T04:50:42.475Z,97725.65
2019-03-06T04:53:47.206Z,97720.98
2019-03-06T04:56:51.641Z,97712.36
2019-03-06T04:59:56.363Z,97712.17
2019-03-06T05:03:00.787Z,97706.52
2019-03-06T05:06:05.520Z,97696.30
2019-03-06T05:09:10.228Z,97696.66
2019-03-06T05:12:14.673Z,97687.19
2019-03-06T05:15:20.123Z,97690.03
2019-03-06T05:18:26.188Z,97677.80
2019-03-06T05:21:30.910Z,97666.31
2019-03-06T05:24:35.338Z,97668.02
2019-03-06T05:27:39.788Z,97670.92
2019-03-06T05:30:44.487Z,97678.81
2019-03-06T05:33:48.917Z,97673.97
2019-03-06T05:37:24.168Z,97660.25
2019-03-06T05:40:28.596Z,97651.42
2019-03-06T05:43:33.021Z,97654.47
2019-03-06T05:46:37.736Z,97653.87
2019-03-06T05:49:42.164Z,97649.67
2019-03-06T05:52:46.602Z,97632.98
2019-03-06T05:55:51.421Z,97625.63
2019-03-06T05:58:55.835Z,97628.63
2019-03-06T06:02:00.576Z,97631.06
2019-03-06T06:05:11.023Z,97630.39
2019-03-06T06:08:15.456Z,97635.18
2019-03-06T06:11:20.132Z,97631.16
2019-03-06T06:14:24.815Z,97626.66
2019-03-06T06:17:29.553Z,97633.25
2019-03-06T06:20:34.285Z,97627.98
2019-03-06T06:23:40.505Z,97619.21
2019-03-06T06:26:45.178Z,97617.60
2019-03-06T06:29:49.908Z,97610.14
2019-03-06T06:32:54.333Z,97594.95
2019-03-06T06:35:59.177Z,97585.97
2019-03-06T06:39:05.122Z,97578.66
2019-03-06T06:42:09.857Z,97577.33
2019-03-06T06:45:20.147Z,97572.69
2019-03-06T06:48:28.816Z,97574.86
2019-03-06T06:51:48.910Z,97579.67
2019-03-06T06:55:14.757Z,97573.45
2019-03-06T06:58:32.786Z,97561.22
2019-03-06T07:02:13.068Z,97559.30
2019-03-06T07:05:22.425Z,97556.05
2019-03-06T07:08:28.773Z,97549.26
2019-03-06T07:11:40.621Z,97546.89
2019-03-06T07:14:55.794Z,97539.89
2019-03-06T07:18:05.790Z,97536.73
2019-03-06T07:21:11.868Z,97545.46
2019-03-06T07:24:36.041Z,97544.70
2019-03-06T07:27:42.119Z,97548.88
2019-03-06T07:30:53.634Z,97545.81
2019-03-06T07:34:11.385Z,97549.09
2019-03-06T07:37:17.484Z,97544.04
2019-03-06T07:40:23.465Z,97538.39
2019-03-06T07:43:35.930Z,97537.37
2019-03-06T07:46:53.983Z,97537.95
2019-03-06T07:50:02.783Z,97526.54
2019-03-06T07:53:46.890Z,97527.33
2019-03-06T07:56:55.614Z,97520.92
2019-03-06T08:00:00.068Z,97523.61
2019-03-06T08:03:07.186Z,97524.92
2019-03-06T08:06:11.615Z,97519.30
2019-03-06T08:09:20.965Z,97521.42
2019-03-06T08:12:25.156Z,97521.92
2019-03-06T08:15:47.251Z,97513.64
2019-03-06T08:18:56.074Z,97521.93
2019-03-06T08:22:02.085Z,97515.53
2019-03-06T08:25:26.190Z,97525.17
2019-03-06T08:28:30.643Z,97515.01
2019-03-06T08:31:39.521Z,97511.97
2019-03-06T08:34:44.204Z,97494.79
2019-03-06T08:37:48.627Z,97504.65
2019-03-06T08:40:53.072Z,97505.59
2019-03-06T08:43:57.509Z,97495.84
2019-03-06T08:47:12.341Z,97499.09
2019-03-06T08:50:22.701Z,97502.65
2019-03-06T08:53:29.074Z,97500.41
2019-03-06T08:56:45.378Z,97495.14
2019-03-06T08:59:54.101Z,97495.56
2019-03-06T09:03:21.354Z,97483.81
2019-03-06T09:06:33.669Z,97478.14
2019-03-06T09:09:38.191Z,97469.38
2019-03-06T09:12:44.264Z,97473.44
2019-03-06T09:15:59.247Z,97462.41
2019-03-06T09:19:21.147Z,97463.13
2019-03-06T09:22:28.773Z,97455.05
2019-03-06T09:25:46.972Z,97456.66
2019-03-06T09:29:09.240Z,97460.41
2019-03-06T09:32:15.315Z,97442.98
2019-03-06T09:35:37.458Z,97436.45
2019-03-06T09:38:44.320Z,97418.73
2019-03-06T09:41:53.114Z,97404.14
2019-03-06T09:45:05.773Z,97401.20
2019-03-06T09:48:12.783Z,97388.73
2019-03-06T09:51:24.666Z,97376.92
2019-03-06T09:54:46.905Z,97366.77
2019-03-06T09:57:55.661Z,97356.34
2019-03-06T10:01:04.758Z,97360.36
2019-03-06T10:04:15.248Z,97359.34
2019-03-06T10:07:21.335Z,97362.25
2019-03-06T10:10:27.423Z,97359.47
2019-03-06T10:13:42.235Z,97354.77
2019-03-06T10:16:49.017Z,97342.27
2019-03-06T10:20:00.323Z,97342.09
2019-03-06T10:23:04.883Z,97332.01
2019-03-06T10:26:09.332Z,97327.17
2019-03-06T10:29:14.053Z,97323.33
2019-03-06T10:32:18.780Z,97322.48
2019-03-06T10:35:23.227Z,97320.46
2019-03-06T10:38:27.840Z,97301.52
2019-03-06T10:41:32.285Z,97296.39
2019-03-06T10:44:37.006Z,97288.80
2019-03-06T10:47:41.430Z,97298.91
2019-03-06T10:50:45.880Z,97285.88
2019-03-06T10:53:50.313Z,97281.79
2019-03-06T10:56:55.299Z,97279.00
2019-03-06T10:59:59.738Z,97283.57
2019-03-06T11:03:05.168Z,97283.70
2019-03-06T11:06:10.006Z,97282.95
2019-03-06T11:09:14.574Z,97281.06
2019-03-06T11:12:19.014Z,97281.06
2019-03-06T11:15:23.614Z,97271.82
2019-03-06T11:18:28.673Z,97266.42
2019-03-06T11:21:34.164Z,97267.05
2019-03-06T11:24:38.604Z,97259.91
2019-03-06T11:27:43.047Z,97256.44
2019-03-06T11:30:56.778Z,97250.27
2019-03-06T11:34:01.220Z,97240.75
2019-03-06T11:37:06.138Z,97233.83
2019-03-06T11:40:16.581Z,97217.48
2019-03-06T11:43:21.373Z,97211.00
2019-03-06T11:46:27.598Z,97203.66
2019-03-06T11:49:32.212Z,97202.93
2019-03-06T11:52:36.938Z,97189.20
2019-03-06T11:55:41.549Z,97178.48
2019-03-06T11:58:46.524Z,97173.91
2019-03-06T12:01:51.042Z,97166.59
2019-03-06T12:04:55.478Z,97164.83
2019-03-06T12:07:59.988Z,97162.88
2019-03-06T12:11:04.502Z,97154.48
2019-03-06T12:14:09.017Z,97138.16
2019-03-06T12:17:13.531Z,97130.47
2019-03-06T12:20:17.976Z,97120.98
2019-03-06T12:23:22.475Z,97107.00
2019-03-06T12:26:26.917Z,97106.12
2019-03-06T12:29:31.599Z,97098.09
2019-03-06T12:32:36.388Z,97096.91
2019-03-06T12:35:40.826Z,97085.52
2019-03-06T12:38:45.271Z,97078.84
2019-03-06T12:41:49.993Z,97073.78
2019-03-06T12:44:54.428Z,97070.45
2019-03-06T12:48:06.368Z,97065.48
2019-03-06T12:51:10.802Z,97059.00
2019-03-06T12:54:15.249Z,97052.33
2019-03-06T12:57:19.697Z,97054.66
2019-03-06T13:00:26.610Z,97041.22
2019-03-06T13:03:31.236Z,97035.05
2019-03-06T13:06:35.667Z,97040.97
2019-03-06T13:09:40.107Z,97035.45
2019-03-06T13:12:45.264Z,97025.63
2019-03-06T13:15:49.704Z,97017.62
2019-03-06T13:18:54.144Z,97013.42
2019-03-06T13:21:58.587Z,96995.24
2019-03-06T13:25:03.031Z,96995.88
2019-03-06T13:28:07.995Z,96987.73
2019-03-06T13:31:12.428Z,96988.23
2019-03-06T13:34:18.788Z,96981.00
2019-03-06T13:37:23.226Z,96980.07
2019-03-06T13:40:27.674Z,96972.86
2019-03-06T13:43:32.113Z,96980.37
2019-03-06T13:46:36.613Z,96973.23
2019-03-06T13:49:41.052Z,96969.94
2019-03-06T13:52:45.564Z,96964.92
2019-03-06T13:55:50.003Z,96966.31
2019-03-06T13:58:54.799Z,96966.03
2019-03-06T14:01:59.567Z,96968.88
2019-03-06T14:05:06.081Z,96969.80
2019-03-06T14:08:10.827Z,96957.89
2019-03-06T14:11:15.337Z,96953.08
2019-03-06T14:14:20.081Z,96949.52
2019-03-06T14:17:24.813Z,96954.16
2019-03-06T14:20:29.260Z,96955.45
2019-03-06T14:23:35.271Z,96953.51
2019-03-06T14:26:39.993Z,96953.47
2019-03-06T14:29:44.437Z,96954.67
2019-03-06T14:32:49.798Z,96943.27
2019-03-06T14:35:54.529Z,96937.95
2019-03-06T14:38:59.261Z,96939.19
2019-03-06T14:42:04.394Z,96934.61
2019-03-06T14:45:13.637Z,96924.60
2019-03-06T14:48:18.469Z,96928.08
2019-03-06T14:51:22.909Z,96917.59
2019-03-06T14:54:27.624Z,96912.67
2019-03-06T14:57:32.602Z,96910.19
2019-03-06T15:00:37.097Z,96908.97
2019-03-06T15:03:41.540Z,96907.72
2019-03-06T15:06:46.348Z,96906.72
2019-03-06T15:09:51.070Z,96910.22
2019-03-06T15:12:55.603Z,96904.91
2019-03-06T15:16:00.438Z,96894.34
2019-03-06T15:19:04.947Z,96895.23
2019-03-06T15:22:09.390Z,96898.05
2019-03-06T15:25:23.848Z,96892.53
2019-03-06T15:28:28.571Z,96893.33
2019-03-06T15:31:33.310Z,96882.83
2019-03-06T15:34:37.743Z,96885.21
2019-03-06T15:37:42.177Z,96886.11
2019-03-06T15:40:46.613Z,96883.41
2019-03-06T15:43:51.308Z,96874.16
2019-03-06T15:46:56.033Z,96879.89
2019-03-06T15:50:00.868Z,96873.14
2019-03-06T15:53:05.846Z,96871.56
2019-03-06T15:56:10.357Z,96872.92
2019-03-06T15:59:15.329Z,96859.30
2019-03-06T16:02:19.785Z,96855.11
2019-03-06T16:05:24.226Z,96849.58
2019-03-06T16:08:29.659Z,96851.69
2019-03-06T16:11:34.396Z,96856.96
2019-03-06T16:14:39.125Z,96854.83
2019-03-06T16:17:43.562Z,96853.14
2019-03-06T16:20:48.004Z,96848.53
2019-03-06T16:23:52.442Z,96847.83
2019-03-06T16:26:57.242Z,96846.16
2019-03-06T16:30:01.955Z,96845.36
2019-03-06T16:33:06.835Z,96831.52
2019-03-06T16:36:11.287Z,96842.42
2019-03-06T16:39:16.049Z,96847.80
2019-03-06T16:42:20.777Z,96834.87
2019-03-06T16:45:29.942Z,96838.34
2019-03-06T16:48:34.379Z,96836.85
2019-03-06T16:51:38.818Z,96836.25
2019-03-06T16:54:43.258Z,96833.19
2019-03-06T16:57:48.235Z,96826.20
2019-03-06T17:00:55.619Z,96823.20
2019-03-06T17:04:00.149Z,96817.04
2019-03-06T17:07:05.186Z,96816.38
2019-03-06T17:10:10.012Z,96810.73
2019-03-06T17:13:14.443Z,96810.66
2019-03-06T17:16:18.951Z,96811.50
2019-03-06T17:19:23.455Z,96810.11
2019-03-06T17:22:28.219Z,96811.11
2019-03-06T17:25:33.670Z,96804.55
2019-03-06T17:28:38.103Z,96805.84
2019-03-06T17:31:43.488Z,96816.40
2019-03-06T17:34:47.967Z,96817.61
2019-03-06T17:37:52.793Z,96817.56
2019-03-06T17:40:57.236Z,96821.50
2019-03-06T17:44:01.955Z,96822.51
2019-03-06T17:47:06.397Z,96815.78
2019-03-06T17:50:12.741Z,96818.39
2019-03-06T17:53:17.180Z,96816.66
2019-03-06T17:56:21.916Z,96815.42
2019-03-06T17:59:26.727Z,96817.61
2019-03-06T18:02:31.559Z,96813.22
2019-03-06T18:05:36.413Z,96802.27
2019-03-06T18:08:40.841Z,96795.28
2019-03-06T18:11:45.350Z,96788.00
2019-03-06T18:14:50.079Z,96766.31
2019-03-06T18:17:54.515Z,96766.69
2019-03-06T18:20:58.977Z,96755.94
2019-03-06T18:24:03.855Z,96729.75
2019-03-06T18:27:08.690Z,96727.61
2019-03-06T18:30:18.735Z,96728.12
2019-03-06T18:33:23.181Z,96714.63
2019-03-06T18:36:27.695Z,96724.27
2019-03-06T18:39:32.425Z,96718.38
2019-03-06T18:42:37.155Z,96716.11
2019-03-06T18:45:41.758Z,96709.59
2019-03-06T18:48:46.247Z,96712.23
2019-03-06T18:51:50.686Z,96704.38
2019-03-06T18:54:55.124Z,96712.28
2019-03-06T18:57:59.918Z,96713.16
2019-03-06T19:01:05.030Z,96714.30
2019-03-06T19:04:09.756Z,96712.50
2019-03-06T19:07:14.198Z,96704.98
2019-03-06T19:10:20.667Z,96694.13
2019-03-06T19:13:25.278Z,96691.30
2019-03-06T19:16:30.935Z,96686.39
2019-03-06T19:19:35.666Z,96678.66
2019-03-06T19:22:40.932Z,96676.22
2019-03-06T19:25:45.367Z,96679.00
2019-03-06T19:28:49.812Z,96678.23
2019-03-06T19:31:54.261Z,96678.03
2019-03-06T19:34:59.322Z,96674.45
2019-03-06T19:38:04.152Z,96671.34
2019-03-06T19:41:08.887Z,96669.02
2019-03-06T19:44:13.612Z,96670.25
2019-03-06T19:47:18.350Z,96663.76
2019-03-06T19:50:26.242Z,96662.50
2019-03-06T19:53:31.186Z,96646.46
2019-03-06T19:56:35.629Z,96636.80
2019-03-06T19:59:40.336Z,96638.97
2019-03-06T20:02:45.067Z,96644.57
2019-03-06T20:05:49.506Z,96640.28
2019-03-06T20:08:54.230Z,96639.95
2019-03-06T20:11:58.959Z,96634.22
2019-03-06T20:15:03.772Z,96634.13
2019-03-06T20:18:08.218Z,96623.11
2019-03-06T20:21:12.938Z,96626.60
2019-03-06T20:24:17.376Z,96618.64
2019-03-06T20:27:21.819Z,96620.63
2019-03-06T20:30:27.769Z,96619.99
2019-03-06T20:33:34.104Z,96613.13
2019-03-06T20:36:39.053Z,96610.66
2019-03-06T20:39:43.775Z,96612.19
2019-03-06T20:42:48.924Z,96622.34
2019-03-06T20:45:53.362Z,96620.99
2019-03-06T20:48:57.886Z,96616.28
2019-03-06T20:52:02.318Z,96604.59
2019-03-06T20:55:10.411Z,96606.02
2019-03-06T20:58:14.846Z,96598.49
2019-03-06T21:01:19.289Z,96605.36
2019-03-06T21:04:23.990Z,96600.56
2019-03-06T21:07:28.814Z,96607.03
2019-03-06T21:10:33.247Z,96602.70
2019-03-06T21:13:37.975Z,96610.47
2019-03-06T21:16:42.699Z,96620.44
2019-03-06T21:19:47.433Z,96616.43
2019-03-06T21:22:52.273Z,96618.39
2019-03-06T21:25:57.003Z,96617.69
2019-03-06T21:29:01.438Z,96614.69
2019-03-06T21:32:06.152Z,96612.41
2019-03-06T21:35:10.982Z,96614.01
2019-03-06T21:38:15.428Z,96611.87
2019-03-06T21:41:19.862Z,96585.11
2019-03-06T21:44:24.315Z,96596.47
2019-03-06T21:47:28.817Z,96588.53
2019-03-06T21:50:33.524Z,96582.92
2019-03-06T21:53:39.190Z,96582.05
2019-03-06T21:56:44.003Z,96585.45
2019-03-06T21:59:48.830Z,96566.34
2019-03-06T22:02:53.988Z,96556.64
2019-03-06T22:05:58.411Z,96552.59
2019-03-06T22:09:02.924Z,96557.37
2019-03-06T22:12:07.643Z,96562.09
2019-03-06T22:15:22.938Z,96557.66
2019-03-06T22:18:27.661Z,96554.33
2019-03-06T22:21:32.110Z,96546.68
2019-03-06T22:24:36.560Z,96548.92
2019-03-06T22:27:40.993Z,96548.08
2019-03-06T22:30:45.443Z,96563.78
2019-03-06T22:33:50.187Z,96566.94
2019-03-06T22:36:54.923Z,96557.77
2019-03-06T22:39:59.361Z,96561.00
2019-03-06T22:43:04.080Z,96578.78
2019-03-06T22:46:08.803Z,96572.61
2019-03-06T22:49:13.532Z,96578.78
2019-03-06T22:52:18.265Z,96575.62
2019-03-06T22:55:22.775Z,96584.52
2019-03-06T22:58:27.520Z,96572.99
2019-03-06T23:01:32.799Z,96573.23
2019-03-06T23:04:37.496Z,96558.16
2019-03-06T23:07:42.227Z,96547.35
2019-03-06T23:10:47.564Z,96543.55
2019-03-06T23:13:52.307Z,96540.81
2019-03-06T23:16:57.034Z,96540.44
2019-03-06T23:20:01.487Z,96539.38
2019-03-06T23:23:06.498Z,96532.03
2019-03-06T23:26:11.222Z,96527.31
2019-03-06T23:29:15.659Z,96521.31
2019-03-06T23:32:20.383Z,96509.97
2019-03-06T23:35:24.820Z,96511.17
2019-03-06T23:38:29.247Z,96508.87
2019-03-06T23:41:33.952Z,96510.49
2019-03-06T23:44:38.378Z,96522.31
2019-03-06T23:47:43.112Z,96513.47
2019-03-06T23:50:47.546Z,96515.20
2019-03-06T23:53:52.739Z,96512.31
2019-03-06T23:56:57.247Z,96519.05
